MSC Levina — 3FJR8 — position and weather

sailwx.info

Track history (hours):
 
Tides and Currents Weather Stations Pressure Air Temp Water Temp Dewpoint Dewpoint Depression Visibility Wind Speed Wind Dir Waves Ship Positions

MSC Levina

Last reported at 2016-Jul-23 09:30 UTC. Time now 2016-Jul-25 22:04 UTC.
Position N 01°16' E 104°08'.

Length 227.6 m; beam 32.2 m; draft 12.1 m.

Type: Cargo ship. MMSI: 355609000.

Date/timePositionNaut miles runAvg speedWind from/ knotsBaromVisibWave heightAir tempDewpointWater temp
2016-Jul-23 09:30N 01°16' E 104°08'1415.0
2016-Jul-23 08:33N 01°12' E 103°54'9 8.7
2016-Jul-23 07:33N 01°16' E 103°46'0 0.4
2016-Jul-23 06:31N 01°16' E 103°46'0 0.0
2016-Jul-23 04:25N 01°16' E 103°46'0 0.0
2016-Jul-23 03:25N 01°16' E 103°46'0 0.0
2016-Jul-23 02:31N 01°16' E 103°46'0 0.0
2016-Jul-23 01:28N 01°16' E 103°46'0 0.0
2016-Jul-22 22:16N 01°16' E 103°46'0 0.0
2016-Jul-22 15:31N 01°16' E 103°46'0 0.0
2016-Jul-22 12:13N 01°16' E 103°46'0 0.0
2016-Jul-22 10:31N 01°16' E 103°46'0 0.1
2016-Jul-22 09:31N 01°16' E 103°46'0 0.0
2016-Jul-22 08:28N 01°16' E 103°46'0 0.1
2016-Jul-22 07:31N 01°16' E 103°46'0 0.0
2016-Jul-22 04:31N 01°16' E 103°46'0 0.0
2016-Jul-22 02:31N 01°16' E 103°46'0 0.0
2016-Jul-22 01:31N 01°16' E 103°46'0 0.1
2016-Jul-22 00:31N 01°16' E 103°46'0 0.0
2016-Jul-21 23:31N 01°16' E 103°46'0 0.0
2016-Jul-21 22:31N 01°16' E 103°46'0 0.0
2016-Jul-21 21:33N 01°16' E 103°46'0 0.0
2016-Jul-21 20:33N 01°16' E 103°46'0 0.1
2016-Jul-21 19:33N 01°16' E 103°46'0 0.1
2016-Jul-21 18:33N 01°16' E 103°46'0 0.0
2016-Jul-21 17:33N 01°16' E 103°46'0 0.0
2016-Jul-21 16:33N 01°16' E 103°46'0 0.0
2016-Jul-21 15:33N 01°16' E 103°46'6 6.1
2016-Jul-21 14:32N 01°13' E 103°52'8 7.8
2016-Jul-21 13:33N 01°15' E 103°59'10 9.8
2016-Jul-21 12:33N 01°17' E 104°09'  
2016-Jul-16 01:30N 01°16' E 104°10'1415.0
2016-Jul-16 00:33N 01°13' E 103°56'8 7.9
2016-Jul-15 23:33N 01°13' E 103°48'4 3.4
2016-Jul-15 22:28N 01°16' E 103°46'0 0.0
2016-Jul-15 21:25N 01°16' E 103°46'0 0.0
2016-Jul-15 20:28N 01°16' E 103°46'0 0.0
2016-Jul-15 19:28N 01°16' E 103°46'0 0.0
2016-Jul-15 18:28N 01°16' E 103°46'0 0.0
2016-Jul-15 17:28N 01°16' E 103°46'0 0.0
2016-Jul-15 16:31N 01°16' E 103°46'0 0.1
2016-Jul-15 15:28N 01°16' E 103°46'0 0.0
2016-Jul-15 14:28N 01°16' E 103°46'0 0.1
2016-Jul-15 13:31N 01°16' E 103°46'0 0.0
2016-Jul-15 12:10N 01°16' E 103°46'0 0.0
2016-Jul-15 11:28N 01°16' E 103°46'0 0.1
2016-Jul-15 10:28N 01°16' E 103°46'0 0.0
2016-Jul-15 09:28N 01°16' E 103°46'0 0.0
2016-Jul-15 08:16N 01°16' E 103°46'0 0.0
2016-Jul-15 07:28N 01°16' E 103°46'0 0.1
2016-Jul-15 06:22N 01°16' E 103°46'0 0.1
2016-Jul-15 05:25N 01°16' E 103°46'0 0.0
2016-Jul-15 04:28N 01°16' E 103°46'0 0.1
2016-Jul-15 03:28N 01°16' E 103°46'0 0.1
2016-Jul-15 02:28N 01°16' E 103°46'0 0.1
2016-Jul-15 01:28N 01°16' E 103°46'0 0.1
2016-Jul-15 00:13N 01°16' E 103°46'0 0.0
2016-Jul-14 23:31N 01°16' E 103°46'0 0.0
2016-Jul-14 22:28N 01°16' E 103°46'0 0.0
2016-Jul-14 21:28N 01°16' E 103°46'1 0.8
2016-Jul-14 20:33N 01°16' E 103°46'5 4.5
2016-Jul-14 19:33N 01°13' E 103°50'9 9.2
2016-Jul-14 18:33N 01°15' E 103°58'10 9.9
2016-Jul-14 17:32N 01°17' E 104°08'  
Track history (hours):
 
Tides and Currents Weather Stations Pressure Air Temp Water Temp Dewpoint Dewpoint Depression Visibility Wind Speed Wind Dir Waves Ship Positions

MSC Levina

Last reported at 2016-Jul-23 09:30 UTC. Time now 2016-Jul-25 22:04 UTC.
Position N 01°16' E 104°08'.

Length 227.6 m; beam 32.2 m; draft 12.1 m.

Type: Cargo ship. MMSI: 355609000.

Date/timePositionNaut miles runAvg speedWind from/ knotsBaromVisibWave heightAir tempDewpointWater temp
2016-Jul-23 09:30N 01°16' E 104°08'1415.0
2016-Jul-23 08:33N 01°12' E 103°54'9 8.7
2016-Jul-23 07:33N 01°16' E 103°46'0 0.4
2016-Jul-23 06:31N 01°16' E 103°46'0 0.0
2016-Jul-23 04:25N 01°16' E 103°46'0 0.0
2016-Jul-23 03:25N 01°16' E 103°46'0 0.0
2016-Jul-23 02:31N 01°16' E 103°46'0 0.0
2016-Jul-23 01:28N 01°16' E 103°46'0 0.0
2016-Jul-22 22:16N 01°16' E 103°46'0 0.0
2016-Jul-22 15:31N 01°16' E 103°46'0 0.0
2016-Jul-22 12:13N 01°16' E 103°46'0 0.0
2016-Jul-22 10:31N 01°16' E 103°46'0 0.1
2016-Jul-22 09:31N 01°16' E 103°46'0 0.0
2016-Jul-22 08:28N 01°16' E 103°46'0 0.1
2016-Jul-22 07:31N 01°16' E 103°46'0 0.0
2016-Jul-22 04:31N 01°16' E 103°46'0 0.0
2016-Jul-22 02:31N 01°16' E 103°46'0 0.0
2016-Jul-22 01:31N 01°16' E 103°46'0 0.1
2016-Jul-22 00:31N 01°16' E 103°46'0 0.0
2016-Jul-21 23:31N 01°16' E 103°46'0 0.0
2016-Jul-21 22:31N 01°16' E 103°46'0 0.0
2016-Jul-21 21:33N 01°16' E 103°46'0 0.0
2016-Jul-21 20:33N 01°16' E 103°46'0 0.1
2016-Jul-21 19:33N 01°16' E 103°46'0 0.1
2016-Jul-21 18:33N 01°16' E 103°46'0 0.0
2016-Jul-21 17:33N 01°16' E 103°46'0 0.0
2016-Jul-21 16:33N 01°16' E 103°46'0 0.0
2016-Jul-21 15:33N 01°16' E 103°46'6 6.1
2016-Jul-21 14:32N 01°13' E 103°52'8 7.8
2016-Jul-21 13:33N 01°15' E 103°59'10 9.8
2016-Jul-21 12:33N 01°17' E 104°09'  
2016-Jul-16 01:30N 01°16' E 104°10'1415.0
2016-Jul-16 00:33N 01°13' E 103°56'8 7.9
2016-Jul-15 23:33N 01°13' E 103°48'4 3.4
2016-Jul-15 22:28N 01°16' E 103°46'0 0.0
2016-Jul-15 21:25N 01°16' E 103°46'0 0.0
2016-Jul-15 20:28N 01°16' E 103°46'0 0.0
2016-Jul-15 19:28N 01°16' E 103°46'0 0.0
2016-Jul-15 18:28N 01°16' E 103°46'0 0.0
2016-Jul-15 17:28N 01°16' E 103°46'0 0.0
2016-Jul-15 16:31N 01°16' E 103°46'0 0.1
2016-Jul-15 15:28N 01°16' E 103°46'0 0.0
2016-Jul-15 14:28N 01°16' E 103°46'0 0.1
2016-Jul-15 13:31N 01°16' E 103°46'0 0.0
2016-Jul-15 12:10N 01°16' E 103°46'0 0.0
2016-Jul-15 11:28N 01°16' E 103°46'0 0.1
2016-Jul-15 10:28N 01°16' E 103°46'0 0.0
2016-Jul-15 09:28N 01°16' E 103°46'0 0.0
2016-Jul-15 08:16N 01°16' E 103°46'0 0.0
2016-Jul-15 07:28N 01°16' E 103°46'0 0.1
2016-Jul-15 06:22N 01°16' E 103°46'0 0.1
2016-Jul-15 05:25N 01°16' E 103°46'0 0.0
2016-Jul-15 04:28N 01°16' E 103°46'0 0.1
2016-Jul-15 03:28N 01°16' E 103°46'0 0.1
2016-Jul-15 02:28N 01°16' E 103°46'0 0.1
2016-Jul-15 01:28N 01°16' E 103°46'0 0.1
2016-Jul-15 00:13N 01°16' E 103°46'0 0.0
2016-Jul-14 23:31N 01°16' E 103°46'0 0.0
2016-Jul-14 22:28N 01°16' E 103°46'0 0.0
2016-Jul-14 21:28N 01°16' E 103°46'1 0.8
2016-Jul-14 20:33N 01°16' E 103°46'5 4.5
2016-Jul-14 19:33N 01°13' E 103°50'9 9.2
2016-Jul-14 18:33N 01°15' E 103°58'10 9.9
2016-Jul-14 17:32N 01°17' E 104°08'  

Dump ship's entire track history